Time;durP1;ratioP1;P1;durP2;ratioP2;P2;SDS_P1;SDS_P2;PMS_P1;PMS_P2;Temp;Humidity;BMP_temperature;BMP_pressure;BME280_temperature;BME280_humidity;BME280_pressure;Samples;Min_cycle;Max_cycle;Signal;HPM_P1;HPM_P2
2022/02/26 00:02:28;;;;;;;79.10;38.20;;;;;;;-0.51;58.52;99660.02;105911;1279;99232;-65
2022/02/26 00:05:01;;;;;;;82.00;39.30;;;;;;;-0.48;58.63;99653.34;105866;1279;112052;-65
2022/02/26 00:07:29;;;;;;;95.40;46.20;;;;;;;-0.46;58.53;99658.01;105917;1279;99264;-65
2022/02/26 00:09:57;;;;;;;116.30;53.60;;;;;;;-0.44;58.82;99664.27;105873;1279;108103;-63
2022/02/26 00:12:25;;;;;;;68.10;33.60;;;;;;;-0.44;58.60;99665.12;105885;1279;98343;-66
2022/02/26 00:14:52;;;;;;;56.40;26.10;;;;;;;-0.43;58.76;99666.15;105879;1279;99249;-67
2022/02/26 00:17:25;;;;;;;50.90;24.90;;;;;;;-0.41;58.71;99669.08;105911;1279;113064;-64
2022/02/26 00:19:52;;;;;;;53.20;25.40;;;;;;;-0.40;58.71;99668.70;105896;1279;99259;-65
2022/02/26 00:22:20;;;;;;;50.20;24.70;;;;;;;-0.38;58.76;99671.11;105895;1279;108338;-65
2022/02/26 00:24:48;;;;;;;51.90;24.90;;;;;;;-0.37;58.81;99671.96;105903;1279;96774;-65
2022/02/26 00:27:16;;;;;;;48.50;23.70;;;;;;;-0.36;58.87;99674.73;105908;1279;99365;-64
2022/02/26 00:29:44;;;;;;;63.30;31.10;;;;;;;-0.34;59.06;99678.52;105891;1279;113134;-67
2022/02/26 00:32:16;;;;;;;75.60;36.10;;;;;;;-0.36;58.67;99680.64;105852;1279;99057;-66
2022/02/26 00:34:44;;;;;;;109.20;52.90;;;;;;;-0.43;58.96;99683.39;105908;1279;108465;-64
2022/02/26 00:37:16;;;;;;;122.90;62.20;;;;;;;-0.67;59.57;99683.63;105842;1279;99316;-64
2022/02/26 00:39:48;;;;;;;124.60;64.10;;;;;;;-1.02;60.06;99683.67;105906;1279;99252;-64
2022/02/26 00:42:16;;;;;;;127.40;63.20;;;;;;;-1.31;61.08;99689.83;105906;1279;113435;-65
2022/02/26 00:44:50;;;;;;;128.90;61.00;;;;;;;-1.53;61.22;99694.13;105922;1279;99340;-65
2022/02/26 00:47:20;;;;;;;129.60;65.10;;;;;;;-1.68;61.86;99696.06;105751;1280;108492;-65
2022/02/26 00:49:52;;;;;;;118.40;56.40;;;;;;;-1.81;62.13;99693.59;105922;1279;98327;-64
2022/02/26 00:52:31;;;;;;;111.90;58.80;;;;;;;-1.86;61.65;99689.67;105868;1280;99272;-66
2022/02/26 00:55:05;;;;;;;111.00;57.60;;;;;;;-1.82;61.06;99693.27;105753;1281;112911;-67
2022/02/26 00:57:35;;;;;;;115.10;56.30;;;;;;;-1.75;61.44;99694.06;105819;1279;100983;-66
2022/02/26 01:00:09;;;;;;;111.00;55.10;;;;;;;-1.76;62.06;99698.08;105828;1281;108696;-66
2022/02/26 01:02:41;;;;;;;116.60;56.60;;;;;;;-1.87;62.63;99696.10;105830;1280;99309;-68
2022/02/26 01:05:10;;;;;;;118.60;62.30;;;;;;;-2.04;63.61;99695.61;105860;1279;99244;-67
2022/02/26 01:07:39;;;;;;;121.60;60.30;;;;;;;-2.21;64.47;99700.13;105784;1279;114065;-67
2022/02/26 01:10:10;;;;;;;116.50;58.30;;;;;;;-2.33;64.99;99697.81;105877;1280;97971;-67
2022/02/26 01:12:38;;;;;;;110.00;53.90;;;;;;;-2.39;64.27;99697.86;105799;1280;107798;-67
2022/02/26 01:15:07;;;;;;;99.60;50.60;;;;;;;-2.32;63.71;99701.45;105803;1279;99231;-68
2022/02/26 01:17:35;;;;;;;103.20;50.70;;;;;;;-2.22;63.44;99702.73;105868;1279;99231;-65
2022/02/26 01:20:07;;;;;;;108.00;52.00;;;;;;;-2.13;63.28;99707.00;105741;1281;113341;-67
2022/02/26 01:22:36;;;;;;;100.80;51.50;;;;;;;-2.04;63.27;99708.65;105829;1279;99212;-67
2022/02/26 01:25:08;;;;;;;96.60;49.50;;;;;;;-1.97;63.15;99709.61;105741;1281;108223;-66
2022/02/26 01:27:39;;;;;;;99.50;49.00;;;;;;;-1.89;63.00;99711.10;105776;1279;99219;-66
2022/02/26 01:30:13;;;;;;;94.40;45.90;;;;;;;-1.84;62.74;99714.67;105848;1279;99327;-67
2022/02/26 01:32:45;;;;;;;95.30;47.20;;;;;;;-1.83;62.92;99722.50;105769;1279;113086;-68
2022/02/26 01:35:13;;;;;;;98.60;48.90;;;;;;;-1.85;62.98;99720.78;105864;1279;99243;-66
2022/02/26 01:37:44;;;;;;;91.40;45.80;;;;;;;-1.88;62.90;99719.77;105811;1279;108387;-66
2022/02/26 01:40:16;;;;;;;90.00;45.20;;;;;;;-1.88;62.91;99719.24;105821;1279;99305;-67
2022/02/26 01:42:49;;;;;;;93.90;44.30;;;;;;;-1.84;62.73;99720.42;105739;1281;98835;-66
2022/02/26 01:45:26;;;;;;;88.50;46.20;;;;;;;-1.82;62.87;99720.73;105805;1279;113293;-66
2022/02/26 01:47:58;;;;;;;95.30;45.80;;;;;;;-1.80;62.74;99714.81;105813;1279;96668;-67
2022/02/26 01:50:30;;;;;;;87.50;44.10;;;;;;;-1.75;62.80;99716.14;105791;1279;107804;-67
2022/02/26 01:53:04;;;;;;;84.80;43.30;;;;;;;-1.72;62.71;99712.27;105868;1280;99216;-67
2022/02/26 01:55:36;;;;;;;;;;;;;;;-1.68;62.90;99716.58;105764;1281;98755;-65
2022/02/26 01:58:10;;;;;;;87.50;41.90;;;;;;;-1.68;62.91;99711.53;105827;1279;112555;-67
2022/02/26 02:00:38;;;;;;;87.00;43.00;;;;;;;-1.65;62.71;99717.41;105798;1279;99254;-66
2022/02/26 02:03:14;;;;;;;82.80;41.70;;;;;;;-1.65;62.61;99713.77;105844;1279;108390;-65
2022/02/26 02:05:47;;;;;;;79.20;40.50;;;;;;;-1.72;62.57;99712.79;105862;1279;99165;-66
2022/02/26 02:08:15;;;;;;;82.20;41.70;;;;;;;-1.78;62.69;99718.95;105835;1279;99219;-68
2022/02/26 02:10:43;;;;;;;75.70;37.70;;;;;;;-1.87;62.69;99719.76;106049;1279;111699;-64
2022/02/26 02:13:15;;;;;;;72.00;36.70;;;;;;;-1.92;62.97;99721.03;105902;1279;99312;-66
2022/02/26 02:15:47;;;;;;;78.60;38.60;;;;;;;-1.96;62.88;99722.28;105929;1279;108456;-66
2022/02/26 02:18:17;;;;;;;77.80;40.30;;;;;;;-1.90;63.05;99725.87;105924;1279;96701;-66
2022/02/26 02:20:50;;;;;;;78.20;39.90;;;;;;;-1.85;63.00;99726.52;105880;1280;99225;-66
2022/02/26 02:23:22;;;;;;;78.80;42.80;;;;;;;-1.81;63.13;99729.77;105883;1280;112677;-65
2022/02/26 02:25:55;;;;;;;80.00;40.50;;;;;;;-1.77;63.12;99733.38;105880;1280;99231;-66
2022/02/26 02:28:28;;;;;;;81.60;41.70;;;;;;;-1.74;62.91;99736.82;105874;1280;108417;-66
2022/02/26 02:30:56;;;;;;;65.60;33.20;;;;;;;-1.73;62.93;99738.20;105898;1280;99220;-66
2022/02/26 02:33:26;;;;;;;77.50;38.60;;;;;;;-1.78;63.30;99739.65;105967;1280;99319;-66
2022/02/26 02:35:54;;;;;;;82.10;42.80;;;;;;;-1.97;63.77;99738.11;105971;1280;113381;-65
2022/02/26 02:38:22;;;;;;;80.20;41.20;;;;;;;-2.15;63.94;99736.73;105956;1279;96557;-68
2022/02/26 02:40:51;;;;;;;80.40;40.40;;;;;;;-2.20;63.97;99741.13;105925;1280;108394;-67
2022/02/26 02:43:24;;;;;;;90.70;42.50;;;;;;;-2.19;63.57;99743.36;105919;1280;99940;-66
2022/02/26 02:45:51;;;;;;;77.80;39.00;;;;;;;-2.14;63.79;99739.16;105964;1280;99255;-66
2022/02/26 02:48:30;;;;;;;80.70;42.20;;;;;;;-2.10;63.42;99743.80;105913;1280;113454;-66
2022/02/26 02:51:02;;;;;;;82.50;41.10;;;;;;;-2.09;63.74;99744.67;105983;1279;97820;-66
2022/02/26 02:53:30;;;;;;;101.30;50.00;;;;;;;-2.17;64.10;99744.23;105977;1280;106135;-66
2022/02/26 02:55:58;;;;;;;81.90;42.50;;;;;;;-2.26;64.34;99746.23;105904;1280;98699;-68
2022/02/26 02:58:33;;;;;;;85.70;45.10;;;;;;;-2.33;64.17;99750.98;105977;1279;96560;-67
2022/02/26 03:01:06;;;;;;;91.60;46.60;;;;;;;-2.35;64.04;99753.42;105930;1280;111023;-65
2022/02/26 03:03:38;;;;;;;89.20;45.90;;;;;;;-2.34;63.93;99756.89;105928;1280;100077;-66
2022/02/26 03:06:06;;;;;;;94.20;47.00;;;;;;;-2.29;64.09;99754.42;105870;1280;108330;-66
2022/02/26 03:08:34;;;;;;;91.20;46.30;;;;;;;-2.24;63.75;99757.84;105910;1280;99972;-66
2022/02/26 03:11:06;;;;;;;89.20;47.60;;;;;;;-2.21;63.98;99757.64;106005;1280;99191;-68
2022/02/26 03:13:34;;;;;;;92.20;46.60;;;;;;;-2.21;63.78;99759.20;105885;1280;112335;-68
2022/02/26 03:16:06;;;;;;;84.20;44.50;;;;;;;-2.19;63.94;99757.10;105882;1280;99782;-68
2022/02/26 03:18:42;;;;;;;86.00;43.50;;;;;;;-2.16;63.83;99758.12;105793;1280;108350;-67
2022/02/26 03:21:18;;;;;;;86.10;46.40;;;;;;;-2.10;63.92;99762.41;103044;1309;635906;-66
2022/02/26 03:23:47;;;;;;;88.70;45.80;;;;;;;-2.11;63.62;99761.55;105693;1283;94377;-64
2022/02/26 03:26:15;;;;;;;87.00;43.90;;;;;;;-2.11;63.87;99766.41;105190;1285;93837;-65
2022/02/26 03:28:42;;;;;;;87.70;45.70;;;;;;;-2.09;64.01;99770.74;105745;1283;108872;-66
2022/02/26 03:31:10;;;;;;;87.40;45.60;;;;;;;-2.10;63.91;99771.97;105741;1283;94364;-66
2022/02/26 03:33:42;;;;;;;81.10;42.60;;;;;;;-2.13;63.93;99772.36;105720;1283;108722;-67
2022/02/26 03:36:14;;;;;;;83.30;44.60;;;;;;;-2.15;63.72;99777.21;105637;1280;94354;-67
2022/02/26 03:38:42;;;;;;;82.20;41.90;;;;;;;-2.14;63.94;99782.60;105872;1280;94224;-66
2022/02/26 03:41:15;;;;;;;76.60;40.90;;;;;;;-2.15;64.12;99779.48;105914;1280;108035;-67
2022/02/26 03:43:42;;;;;;;78.30;41.80;;;;;;;-2.16;63.87;99781.39;105772;1281;93759;-65
2022/02/26 03:46:14;;;;;;;73.60;38.10;;;;;;;-2.18;63.72;99787.33;105883;1280;108332;-66
2022/02/26 03:48:46;;;;;;;72.30;38.50;;;;;;;-2.20;63.85;99785.25;105893;1277;95172;-63
2022/02/26 03:51:14;;;;;;;69.80;37.70;;;;;;;-2.23;63.90;99781.98;106009;1277;95309;-66
2022/02/26 03:53:42;;;;;;;71.50;37.60;;;;;;;-2.23;63.79;99790.84;106008;1277;109474;-67
2022/02/26 03:56:14;;;;;;;71.80;36.80;;;;;;;-2.26;63.65;99788.27;105907;1277;95114;-66
2022/02/26 03:58:42;;;;;;;72.90;38.10;;;;;;;-2.30;63.66;99789.02;105901;1277;106850;-63
2022/02/26 04:01:10;;;;;;;72.00;38.10;;;;;;;-2.31;63.91;99791.45;105953;1278;95387;-67
2022/02/26 04:03:42;;;;;;;76.60;39.30;;;;;;;-2.29;63.75;99794.90;105884;1280;95156;-66
2022/02/26 04:06:15;;;;;;;72.10;39.00;;;;;;;-2.31;63.76;99793.70;105898;1280;109727;-65
2022/02/26 04:08:43;;;;;;;69.60;36.10;;;;;;;-2.33;63.73;99797.72;105904;1280;94267;-68
2022/02/26 04:11:15;;;;;;;69.90;35.00;;;;;;;-2.35;63.98;99801.20;105914;1280;108434;-67
2022/02/26 04:13:45;;;;;;;82.60;39.40;;;;;;;-2.47;64.84;99798.16;105937;1280;95170;-68
2022/02/26 04:16:21;;;;;;;76.10;39.80;;;;;;;-2.65;64.91;99806.29;105871;1280;95346;-67
2022/02/26 04:18:51;;;;;;;83.50;43.10;;;;;;;-2.77;65.30;99806.37;105874;1280;109617;-64
2022/02/26 04:21:21;;;;;;;77.00;40.80;;;;;;;-2.88;65.24;99807.30;105858;1281;96346;-68
2022/02/26 04:23:48;;;;;;;78.70;42.10;;;;;;;-2.93;65.38;99801.60;105763;1280;109068;-66
2022/02/26 04:26:22;;;;;;;82.90;43.60;;;;;;;-2.94;65.09;99804.73;105854;1281;95781;-66
2022/02/26 04:28:55;;;;;;;78.50;40.30;;;;;;;-2.91;64.91;99811.31;105830;1281;95437;-67
2022/02/26 04:31:27;;;;;;;63.60;34.70;;;;;;;-2.84;64.88;99809.18;105754;1280;108623;-66
2022/02/26 04:33:59;;;;;;;82.80;42.30;;;;;;;-2.78;64.87;99812.27;105887;1277;95909;-66
2022/02/26 04:36:27;;;;;;;80.00;40.80;;;;;;;-2.70;64.79;99813.27;105881;1277;107354;-65
2022/02/26 04:38:55;;;;;;;89.30;43.90;;;;;;;-2.65;64.71;99812.18;105892;1277;94238;-65
2022/02/26 04:41:27;;;;;;;80.10;41.60;;;;;;;-2.61;64.41;99818.59;105945;1276;95229;-65
2022/02/26 04:43:59;;;;;;;67.50;33.20;;;;;;;-2.62;64.44;99822.08;105926;1276;109930;-65
2022/02/26 04:46:28;;;;;;;84.30;41.90;;;;;;;-2.71;65.23;99824.03;105918;1276;95263;-66
2022/02/26 04:49:00;;;;;;;83.90;43.70;;;;;;;-2.92;65.62;99826.25;105994;1277;109397;-67
2022/02/26 04:51:29;;;;;;;98.00;44.10;;;;;;;-3.04;66.33;99829.77;105968;1278;95192;-66
2022/02/26 04:53:59;;;;;;;145.20;58.60;;;;;;;-3.18;66.80;99833.30;105894;1277;94300;-67
2022/02/26 04:56:30;;;;;;;135.40;59.30;;;;;;;-3.28;67.12;99839.77;105897;1277;108598;-66
2022/02/26 04:58:58;;;;;;;115.00;54.40;;;;;;;-3.34;67.04;99842.05;106036;1277;95166;-69
2022/02/26 05:01:26;;;;;;;119.10;51.50;;;;;;;-3.34;66.49;99847.43;105952;1278;108390;-67
2022/02/26 05:03:58;;;;;;;114.70;50.50;;;;;;;-3.28;66.34;99860.07;105995;1277;95263;-68
2022/02/26 05:06:26;;;;;;;107.70;49.50;;;;;;;-3.22;66.09;99864.37;106035;1277;94325;-67
2022/02/26 05:08:54;;;;;;;93.90;45.00;;;;;;;-3.17;66.14;99871.98;105954;1277;109525;-64
2022/02/26 05:11:29;;;;;;;98.60;47.10;;;;;;;-3.14;65.65;99874.41;105947;1277;94247;-66
2022/02/26 05:14:01;;;;;;;103.80;47.40;;;;;;;-3.11;65.80;99877.17;105907;1277;108256;-67
2022/02/26 05:16:29;;;;;;;107.30;49.00;;;;;;;-3.09;65.87;99882.55;105900;1277;95144;-67
2022/02/26 05:18:57;;;;;;;92.20;46.40;;;;;;;-3.04;65.50;99885.30;106029;1277;95306;-66
2022/02/26 05:21:24;;;;;;;94.70;44.10;;;;;;;-2.99;65.59;99890.66;105952;1277;109519;-66
2022/02/26 05:23:57;;;;;;;109.40;50.80;;;;;;;-2.96;65.55;99889.26;106042;1277;95003;-65
2022/02/26 05:26:28;;;;;;;114.50;56.70;;;;;;;-2.94;65.70;99890.64;105923;1277;108271;-66
2022/02/26 05:28:56;;;;;;;119.30;59.00;;;;;;;-2.89;65.77;99894.45;105968;1277;95909;-68
2022/02/26 05:31:24;;;;;;;131.20;66.40;;;;;;;-2.86;65.46;99898.93;106019;1277;95259;-68
2022/02/26 05:34:02;;;;;;;109.40;60.70;;;;;;;-2.82;65.68;99903.26;105875;1277;109394;-66
2022/02/26 05:36:35;;;;;;;104.30;57.30;;;;;;;-2.86;66.07;99903.80;105877;1277;95190;-65
2022/02/26 05:39:09;;;;;;;103.30;57.50;;;;;;;-2.91;66.78;99910.59;105974;1277;107675;-64
2022/02/26 05:41:38;;;;;;;97.50;55.00;;;;;;;-3.00;66.33;99917.05;106011;1277;95169;-66
2022/02/26 05:44:15;;;;;;;103.80;51.40;;;;;;;-2.98;66.45;99916.69;105912;1277;95298;-66
2022/02/26 05:46:47;;;;;;;97.20;50.60;;;;;;;-2.90;66.26;99921.00;105939;1277;108692;-65
2022/02/26 05:49:15;;;;;;;84.80;48.20;;;;;;;-2.80;66.25;99925.64;105961;1277;95262;-65
2022/02/26 05:51:43;;;;;;;84.60;47.60;;;;;;;-2.72;66.23;99929.43;105932;1277;107251;-65
2022/02/26 05:54:15;;;;;;;84.70;46.70;;;;;;;-2.63;66.19;99937.54;105923;1277;94286;-66
2022/02/26 05:56:43;;;;;;;83.20;46.60;;;;;;;-2.56;66.09;99938.21;106032;1277;95189;-64
2022/02/26 05:59:10;;;;;;;79.90;44.20;;;;;;;-2.53;66.20;99939.95;106002;1278;109264;-66
2022/02/26 06:01:38;;;;;;;77.80;43.20;;;;;;;-2.54;66.58;99941.67;105993;1277;95185;-66
2022/02/26 06:04:14;;;;;;;77.70;42.60;;;;;;;-2.57;66.33;99947.08;105989;1277;108288;-64
2022/02/26 06:06:42;;;;;;;82.20;45.20;;;;;;;-2.56;66.26;99944.98;105903;1277;94245;-64
2022/02/26 06:09:14;;;;;;;75.30;43.10;;;;;;;-2.50;66.18;99945.13;105913;1277;95253;-65
2022/02/26 06:11:42;;;;;;;83.40;44.50;;;;;;;-2.46;66.33;99946.15;105909;1277;109350;-66
2022/02/26 06:14:18;;;;;;;77.10;43.90;;;;;;;-2.40;66.29;99950.11;105980;1277;95189;-66
2022/02/26 06:16:46;;;;;;;80.40;44.20;;;;;;;-2.31;66.27;99950.41;106022;1276;108275;-66
2022/02/26 06:19:18;;;;;;;69.70;40.20;;;;;;;-2.22;66.69;99954.88;106067;1276;94527;-66
2022/02/26 06:21:48;;;;;;;74.70;41.20;;;;;;;-2.24;67.40;99954.01;106051;1276;95272;-65
2022/02/26 06:24:22;;;;;;;77.10;42.10;;;;;;;-2.31;68.02;99953.36;106047;1276;107080;-66
2022/02/26 06:26:50;;;;;;;83.30;44.90;;;;;;;-2.37;68.14;99956.52;106033;1276;94235;-66
2022/02/26 06:29:24;;;;;;;77.70;44.70;;;;;;;-2.36;67.86;99958.95;106045;1276;107696;-66
2022/02/26 06:31:52;;;;;;;82.30;44.40;;;;;;;-2.29;67.73;99959.27;105904;1278;94247;-65
2022/02/26 06:34:24;;;;;;;74.80;42.00;;;;;;;-2.22;67.69;99958.52;106097;1276;95193;-66
2022/02/26 06:36:52;;;;;;;80.70;42.40;;;;;;;-2.11;67.48;99962.98;106140;1276;107678;-65
2022/02/26 06:39:24;;;;;;;69.60;37.50;;;;;;;-1.99;67.00;99965.85;106137;1271;95171;-66
2022/02/26 06:41:56;;;;;;;74.00;38.80;;;;;;;-1.89;67.44;99969.77;106075;1271;106955;-66
2022/02/26 06:44:24;;;;;;;80.80;40.40;;;;;;;-1.85;67.82;99973.40;106120;1271;94244;-66
2022/02/26 06:46:52;;;;;;;75.00;39.50;;;;;;;-1.84;67.95;99972.01;106129;1272;94227;-65
2022/02/26 06:49:20;;;;;;;83.60;42.90;;;;;;;-1.83;68.40;99974.95;106162;1271;108025;-66
2022/02/26 06:51:48;;;;;;;75.80;41.80;;;;;;;-1.86;68.57;99979.85;106100;1271;95618;-70
2022/02/26 06:54:16;;;;;;;82.10;45.90;;;;;;;-1.87;68.38;99983.85;106288;1271;108233;-66
2022/02/26 06:56:45;;;;;;;78.10;43.30;;;;;;;-1.76;68.53;99989.34;106164;1271;95173;-65
2022/02/26 06:59:13;;;;;;;83.30;43.90;;;;;;;-1.69;68.26;99994.49;106123;1273;95241;-66
2022/02/26 07:01:45;;;;;;;86.90;45.50;;;;;;;-1.66;68.25;100000.91;106126;1273;109250;-69
2022/02/26 07:04:15;;;;;;;;;;;;;;;-1.64;68.53;100000.19;106187;1272;95252;-67
2022/02/26 07:06:47;;;;;;;81.70;42.60;;;;;;;-1.64;68.74;100005.94;106195;1271;108818;-68
2022/02/26 07:09:21;;;;;;;83.10;46.40;;;;;;;-1.60;68.57;100002.08;106169;1272;95240;-67
2022/02/26 07:11:54;;;;;;;85.50;46.90;;;;;;;-1.55;68.80;100006.39;106239;1272;95176;-70
2022/02/26 07:14:22;;;;;;;83.00;42.40;;;;;;;-1.46;68.56;100007.90;106176;1272;108918;-65
2022/02/26 07:16:52;;;;;;;90.30;48.30;;;;;;;-1.40;68.93;100013.05;106202;1273;95168;-65
2022/02/26 07:19:24;;;;;;;84.60;47.20;;;;;;;-1.37;68.53;100015.80;106123;1273;108385;-66
2022/02/26 07:21:52;;;;;;;87.10;48.10;;;;;;;-1.30;69.23;100017.15;106134;1274;95175;-66
2022/02/26 07:24:31;;;;;;;91.50;50.30;;;;;;;-1.23;68.58;100019.35;106182;1274;94288;-67
2022/02/26 07:27:03;;;;;;;98.10;55.50;;;;;;;-1.14;68.53;100021.52;106229;1274;109312;-68
2022/02/26 07:29:31;;;;;;;93.40;49.20;;;;;;;-1.04;68.18;100026.65;106221;1271;95170;-65
2022/02/26 07:32:07;;;;;;;89.20;49.70;;;;;;;-0.93;68.40;100030.55;106184;1271;108318;-65
2022/02/26 07:34:35;;;;;;;83.00;47.80;;;;;;;-0.84;68.32;100033.25;106160;1270;96630;-68
2022/02/26 07:37:06;;;;;;;82.70;46.00;;;;;;;-0.74;68.18;100040.11;106156;1271;96452;-66
2022/02/26 07:39:34;;;;;;;80.50;45.50;;;;;;;-0.63;68.50;100038.77;106204;1271;108676;-68
2022/02/26 07:42:10;;;;;;;79.50;44.40;;;;;;;-0.53;68.46;100046.15;106186;1271;94244;-67
2022/02/26 07:44:38;;;;;;;77.10;44.00;;;;;;;-0.43;68.34;100044.14;106168;1271;107803;-66
2022/02/26 07:47:15;;;;;;;90.10;48.20;;;;;;;-0.33;68.43;100047.31;106196;1271;96834;-67
2022/02/26 07:49:42;;;;;;;76.90;43.30;;;;;;;-0.23;68.36;100049.63;106177;1271;96573;-68
2022/02/26 07:52:10;;;;;;;70.40;39.70;;;;;;;-0.13;68.29;100049.14;106153;1271;110644;-67
2022/02/26 07:54:38;;;;;;;77.30;42.80;;;;;;;-0.01;68.22;100053.54;106151;1271;94214;-67
2022/02/26 07:57:10;;;;;;;72.20;40.90;;;;;;;0.09;68.28;100054.43;106165;1271;108305;-67
2022/02/26 07:59:38;;;;;;;64.60;35.60;;;;;;;0.21;68.15;100052.53;106160;1271;94365;-69
2022/02/26 08:02:07;;;;;;;66.10;36.70;;;;;;;0.34;67.96;100048.86;106151;1271;94315;-65
2022/02/26 08:04:39;;;;;;;61.60;35.10;;;;;;;0.47;68.10;100052.84;106166;1271;110574;-67
2022/02/26 08:07:06;;;;;;;63.70;35.70;;;;;;;0.59;68.09;100052.66;106238;1271;96590;-67
2022/02/26 08:09:38;;;;;;;68.30;35.60;;;;;;;0.69;67.95;100052.67;106175;1271;107913;-68
2022/02/26 08:12:11;;;;;;;63.70;34.50;;;;;;;0.81;68.03;100058.23;106223;1271;96606;-68
2022/02/26 08:14:42;;;;;;;55.60;32.30;;;;;;;0.92;68.09;100059.63;106175;1274;94985;-67
2022/02/26 08:17:10;;;;;;;54.40;29.30;;;;;;;1.04;68.00;100062.58;106075;1271;110751;-66
2022/02/26 08:19:38;;;;;;;60.30;30.40;;;;;;;1.15;67.94;100067.26;106218;1271;94238;-69
2022/02/26 08:22:07;;;;;;;50.10;27.90;;;;;;;1.27;68.04;100065.81;105997;1273;108417;-68
2022/02/26 08:24:39;;;;;;;44.10;23.50;;;;;;;1.39;67.79;100065.44;106047;1271;96536;-69
2022/02/26 08:27:07;;;;;;;45.60;22.70;;;;;;;1.50;67.80;100069.42;106138;1271;97631;-67
2022/02/26 08:29:34;;;;;;;43.50;23.00;;;;;;;1.61;67.55;100068.51;106108;1271;109676;-67
2022/02/26 08:32:08;;;;;;;46.80;24.10;;;;;;;1.71;67.69;100065.52;106096;1271;96592;-68
2022/02/26 08:34:36;;;;;;;45.20;22.80;;;;;;;1.83;67.54;100064.39;106069;1273;108661;-68
2022/02/26 08:37:08;;;;;;;45.40;23.80;;;;;;;1.96;67.93;100067.98;106056;1273;96597;-67
2022/02/26 08:39:36;;;;;;;49.00;25.60;;;;;;;2.10;68.01;100075.20;106061;1273;94964;-68
2022/02/26 08:42:10;;;;;;;43.70;21.30;;;;;;;2.20;67.90;100071.30;106190;1273;110746;-71
2022/02/26 08:44:38;;;;;;;40.50;19.80;;;;;;;2.28;67.29;100072.02;106181;1272;96533;-68
2022/02/26 08:47:10;;;;;;;42.80;20.80;;;;;;;2.35;67.56;100076.40;106163;1273;107628;-70
2022/02/26 08:49:39;;;;;;;43.10;21.60;;;;;;;2.43;67.23;100073.06;106112;1273;96598;-68
2022/02/26 08:52:11;;;;;;;43.10;20.50;;;;;;;2.51;67.30;100077.59;106144;1273;95405;-67
2022/02/26 08:54:39;;;;;;;41.80;19.50;;;;;;;2.63;67.34;100073.65;106052;1273;110910;-69
2022/02/26 08:57:11;;;;;;;45.10;22.10;;;;;;;2.78;67.18;100078.02;106094;1273;96357;-73
2022/02/26 08:59:43;;;;;;;43.70;20.30;;;;;;;3.07;67.56;100076.26;106081;1273;107736;-69
2022/02/26 09:02:11;;;;;;;40.80;19.80;;;;;;;3.45;67.36;100081.77;106135;1272;94861;-69
2022/02/26 09:04:40;;;;;;;43.40;23.70;;;;;;;3.86;67.52;100080.64;106115;1273;96481;-68
2022/02/26 09:07:08;;;;;;;46.50;22.50;;;;;;;4.26;67.53;100088.58;106051;1273;110702;-69
2022/02/26 09:09:41;;;;;;;44.40;23.90;;;;;;;4.69;67.40;100086.02;106063;1271;96526;-69
2022/02/26 09:12:09;;;;;;;44.60;24.60;;;;;;;5.07;67.21;100089.89;106079;1271;108227;-64
2022/02/26 09:14:37;;;;;;;49.10;25.60;;;;;;;5.38;67.30;100084.64;106112;1273;96695;-66
2022/02/26 09:17:05;;;;;;;48.90;23.90;;;;;;;5.62;67.28;100088.56;107864;1271;94533;-67
2022/02/26 09:19:36;;;;;;;48.10;25.30;;;;;;;5.72;67.07;100091.69;106030;1273;110644;-67
2022/02/26 09:22:05;;;;;;;41.30;22.80;;;;;;;5.76;66.98;100095.23;106069;1269;94860;-68
2022/02/26 09:24:34;;;;;;;44.70;24.00;;;;;;;5.78;66.94;100099.02;105947;1273;108222;-67
2022/02/26 09:27:02;;;;;;;47.20;24.50;;;;;;;5.80;66.73;100104.09;106977;1271;96549;-66
2022/02/26 09:29:30;;;;;;;43.40;22.70;;;;;;;5.86;65.45;100106.52;108030;1271;94584;-67
2022/02/26 09:31:58;;;;;;;43.60;21.80;;;;;;;5.97;66.31;100108.58;107986;1273;110029;-66
2022/02/26 09:34:28;;;;;;;41.40;21.50;;;;;;;6.08;66.41;100112.95;108015;1271;94712;-66
2022/02/26 09:36:56;;;;;;;43.50;21.50;;;;;;;6.16;66.25;100115.48;107993;1271;108873;-67
2022/02/26 09:39:24;;;;;;;43.90;21.40;;;;;;;6.21;66.13;100122.70;107993;1271;94403;-67
2022/02/26 09:41:52;;;;;;;47.90;24.80;;;;;;;6.11;65.73;100127.30;108034;1271;94623;-68
2022/02/26 09:44:20;;;;;;;47.70;24.90;;;;;;;5.98;65.79;100127.55;106436;1273;109909;-68
2022/02/26 09:46:51;;;;;;;48.70;25.50;;;;;;;5.92;65.77;100131.10;106080;1273;96650;-68
2022/02/26 09:49:20;;;;;;;46.70;23.20;;;;;;;5.89;65.87;100132.45;106051;1273;108387;-66
2022/02/26 09:51:49;;;;;;;45.90;21.30;;;;;;;5.88;65.85;100132.85;106095;1271;96545;-67
2022/02/26 09:54:18;;;;;;;51.10;24.40;;;;;;;5.86;65.89;100135.23;106052;1271;94907;-66
2022/02/26 09:56:46;;;;;;;46.50;24.50;;;;;;;5.81;65.68;100136.43;106061;1271;110680;-67
2022/02/26 09:59:15;;;;;;;46.70;22.30;;;;;;;5.74;65.53;100140.20;106030;1271;95634;-67
2022/02/26 10:02:17;;;;;;;46.20;23.80;;;;;;;5.62;65.62;100147.50;106180;1271;107759;-66
2022/02/26 10:04:55;;;;;;;43.30;23.30;;;;;;;5.56;65.57;100143.30;106105;1271;94355;-67
2022/02/26 10:07:27;;;;;;;46.00;21.90;;;;;;;5.59;65.67;100145.84;106110;1271;96507;-65
2022/02/26 10:09:55;;;;;;;42.10;22.60;;;;;;;5.61;65.87;100149.09;106127;1273;110171;-68
2022/02/26 10:12:29;;;;;;;44.80;22.80;;;;;;;5.62;65.69;100153.11;106117;1273;96629;-67
2022/02/26 10:15:00;;;;;;;47.10;24.80;;;;;;;5.66;65.51;100153.33;106083;1273;108118;-67
2022/02/26 10:18:07;;;;;;;52.90;26.40;;;;;;;5.76;65.44;100153.86;106119;1273;96640;-67
2022/02/26 11:46:44;;;;;;;40.20;19.60;;;;;;;7.56;63.50;100140.21;106125;1267;96630;-66
2022/02/26 11:49:27;;;;;;;40.20;20.70;;;;;;;7.56;63.52;100145.48;105991;1273;95174;-67
2022/02/26 11:51:56;;;;;;;38.20;19.60;;;;;;;7.52;63.27;100143.55;105864;1273;110993;-67
2022/02/26 11:54:26;;;;;;;39.20;19.30;;;;;;;7.35;63.29;100145.15;105933;1273;96630;-67
2022/02/26 11:56:58;;;;;;;40.10;18.30;;;;;;;7.26;63.26;100138.47;105809;1274;108184;-69
2022/02/26 12:00:08;;;;;;;36.10;16.90;;;;;;;7.20;63.33;100137.30;106009;1273;94349;-66
2022/02/26 12:02:37;;;;;;;38.00;19.10;;;;;;;7.25;63.52;100143.30;105949;1273;96764;-66
2022/02/26 12:05:05;;;;;;;42.70;20.40;;;;;;;7.24;63.32;100142.98;105932;1273;110723;-67
2022/02/26 12:07:42;;;;;;;41.00;20.30;;;;;;;7.21;63.01;100144.84;106035;1273;96621;-68
2022/02/26 12:10:13;;;;;;;40.50;19.10;;;;;;;7.15;63.05;100149.68;106014;1274;108341;-69
2022/02/26 12:12:48;;;;;;;39.20;19.00;;;;;;;7.09;62.74;100148.71;105977;1274;94492;-67
2022/02/26 12:15:22;;;;;;;37.00;17.30;;;;;;;6.99;62.83;100150.69;106127;1273;94368;-66
2022/02/26 12:17:53;;;;;;;40.80;19.20;;;;;;;6.93;62.81;100150.22;105960;1274;108729;-67
2022/02/26 12:20:30;;;;;;;36.00;17.20;;;;;;;6.92;63.14;100148.66;106035;1272;95248;-67
2022/02/26 12:23:09;;;;;;;34.70;17.00;;;;;;;6.99;63.05;100149.11;106096;1273;108365;-67
2022/02/26 12:25:39;;;;;;;33.60;16.50;;;;;;;7.10;62.93;100149.02;105968;1273;96151;-67
2022/02/26 12:28:11;;;;;;;32.60;15.00;;;;;;;7.14;62.77;100148.32;106079;1273;96535;-66
2022/02/26 12:31:03;;;;;;;29.40;14.00;;;;;;;7.17;62.78;100147.14;106007;1273;111109;-67
2022/02/26 12:33:37;;;;;;;31.20;13.30;;;;;;;7.28;62.66;100147.03;105991;1273;95057;-67
2022/02/26 12:36:15;;;;;;;36.40;15.30;;;;;;;7.43;62.90;100144.65;106078;1273;108510;-66
2022/02/26 12:38:47;;;;;;;32.30;14.00;;;;;;;7.50;62.47;100146.83;106002;1273;96634;-69
2022/02/26 12:41:32;;;;;;;32.30;14.10;;;;;;;7.53;62.68;100144.79;105945;1273;96610;-70
2022/02/26 12:44:02;;;;;;;31.60;14.20;;;;;;;7.64;62.66;100142.36;106090;1273;110047;-69
2022/02/26 12:46:33;;;;;;;26.60;11.40;;;;;;;7.74;62.54;100139.45;106052;1273;96535;-69
2022/02/26 12:49:04;;;;;;;29.40;12.70;;;;;;;7.81;62.30;100135.95;106064;1273;107786;-69